Nimrod, Arkansas
Current Conditions -  °F | °C
As of 2:53 AM on Thursday 18 Dec 2014 (Local Time) from KRUE Reporting Station
Overcast Overcast  
Wind Chill: 36°   Ceiling: 3600
Heat Index: 36°   Visibility: 10mi
Dew Point: 33°   Wind: 3mph
Humidity: 89%   Direction: NA
Pressure: 30.22"   Gusts: NA
Location:  34.9067°N, 93.0072°W
Report Text: KRUE 180853Z AUTO VRB03KT 10SM OVC036 02/01 A3022 RMK AO2 UPE19 SLP231 P0001 60005 T00220006 56010
Loading
Personal Weather Stations






























Interactive Weather Map New forecast layout! Learn more

10-Day Weather Forecast

Advertisements
Track Severe Weather on mobile